createdAt,value
2019-04-26T00:00:53.140Z,100690.98
2019-04-26T00:03:28.015Z,100687.87
2019-04-26T00:05:57.485Z,100689.31
2019-04-26T00:08:26.271Z,100684.00
2019-04-26T00:11:02.451Z,100685.45
2019-04-26T00:13:48.129Z,100687.72
2019-04-26T00:16:38.365Z,100680.70
2019-04-26T00:19:07.462Z,100680.11
2019-04-26T00:21:36.628Z,100678.75
2019-04-26T00:24:05.793Z,100683.02
2019-04-26T00:26:34.945Z,100675.53
2019-04-26T00:29:03.943Z,100675.13
2019-04-26T00:31:44.601Z,100670.84
2019-04-26T00:34:22.830Z,100662.67
2019-04-26T00:36:51.732Z,100657.48
2019-04-26T00:39:20.773Z,100659.05
2019-04-26T00:41:50.200Z,100660.30
2019-04-26T00:44:19.444Z,100656.38
2019-04-26T00:46:50.873Z,100652.80
2019-04-26T00:49:21.259Z,100650.59
2019-04-26T00:51:51.017Z,100652.27
2019-04-26T00:54:22.239Z,100658.05
2019-04-26T00:57:02.034Z,100653.39
2019-04-26T00:59:32.198Z,100659.38
2019-04-26T01:02:08.465Z,100682.78
2019-04-26T01:04:37.346Z,100723.31
2019-04-26T01:07:08.652Z,100732.24
2019-04-26T01:09:37.621Z,100739.99
2019-04-26T01:12:06.613Z,100726.21
2019-04-26T01:14:35.577Z,100697.28
2019-04-26T01:17:04.712Z,100694.86
2019-04-26T01:20:00.090Z,100721.39
2019-04-26T01:22:32.993Z,100741.90
2019-04-26T01:25:06.107Z,100740.73
2019-04-26T01:27:37.311Z,100733.42
2019-04-26T01:30:09.058Z,100720.64
2019-04-26T01:32:40.909Z,100716.50
2019-04-26T01:35:09.967Z,100699.84
2019-04-26T01:38:03.869Z,100690.30
2019-04-26T01:40:34.476Z,100701.70
2019-04-26T01:43:26.419Z,100699.67
2019-04-26T01:46:10.581Z,100695.49
2019-04-26T01:48:53.541Z,100713.06
2019-04-26T01:51:29.035Z,100701.03
2019-04-26T01:53:57.988Z,100706.33
2019-04-26T01:56:31.428Z,100680.84
2019-04-26T01:59:00.467Z,100677.34
2019-04-26T02:01:43.339Z,100678.23
2019-04-26T02:04:12.656Z,100688.16
2019-04-26T02:06:41.796Z,100705.34
2019-04-26T02:09:11.517Z,100703.66
2019-04-26T02:11:40.821Z,100682.23
2019-04-26T02:14:10.239Z,100668.30
2019-04-26T02:16:39.780Z,100651.77
2019-04-26T02:19:08.764Z,100641.30
2019-04-26T02:21:44.149Z,100643.39
2019-04-26T02:24:18.180Z,100655.21
2019-04-26T02:26:48.195Z,100668.41
2019-04-26T02:29:26.649Z,100660.25
2019-04-26T02:31:59.795Z,100664.94
2019-04-26T02:34:31.304Z,100656.89
2019-04-26T02:37:03.592Z,100650.44
2019-04-26T02:39:39.340Z,100666.77
2019-04-26T02:42:19.082Z,100672.45
2019-04-26T02:45:10.385Z,100661.76
2019-04-26T02:47:57.742Z,100656.70
2019-04-26T02:50:46.976Z,100658.78
2019-04-26T02:53:33.560Z,100666.34
2019-04-26T02:56:37.731Z,100670.50
2019-04-26T02:59:34.570Z,100660.58
2019-04-26T03:02:07.245Z,100659.38
2019-04-26T03:04:40.882Z,100672.77
2019-04-26T03:07:15.427Z,100680.09
2019-04-26T03:09:47.503Z,100662.73
2019-04-26T03:12:18.530Z,100662.73
2019-04-26T03:15:13.907Z,100665.00
2019-04-26T03:17:49.415Z,100658.72
2019-04-26T03:20:21.973Z,100657.33
2019-04-26T03:23:08.046Z,100633.24
2019-04-26T03:26:12.902Z,100661.68
2019-04-26T03:29:02.189Z,100660.48
2019-04-26T03:32:02.342Z,100671.03
2019-04-26T03:34:50.782Z,100678.45
2019-04-26T03:38:11.283Z,100676.77
2019-04-26T03:41:24.015Z,100664.20
2019-04-26T03:44:12.147Z,100646.36
2019-04-26T03:46:58.852Z,100652.08
2019-04-26T03:50:09.773Z,100649.14
2019-04-26T03:53:30.960Z,100645.45
2019-04-26T03:56:36.486Z,100645.11
2019-04-26T03:59:42.815Z,100652.58
2019-04-26T04:02:21.914Z,100652.58
2019-04-26T04:05:03.297Z,100641.92
2019-04-26T04:07:39.131Z,100635.85
2019-04-26T04:10:20.124Z,100619.89
2019-04-26T04:14:07.073Z,100634.25
2019-04-26T04:17:11.761Z,100634.25
2019-04-26T04:20:51.721Z,100632.66
2019-04-26T04:24:04.659Z,100621.94
2019-04-26T04:27:10.460Z,100621.94
2019-04-26T04:29:54.480Z,100630.94
2019-04-26T04:32:30.149Z,100632.96
2019-04-26T04:35:06.249Z,100633.69
2019-04-26T04:38:09.667Z,100632.77
2019-04-26T04:41:31.677Z,100632.77
2019-04-26T04:45:12.945Z,100638.45
2019-04-26T04:48:01.260Z,100593.36
2019-04-26T04:50:42.552Z,100640.41
2019-04-26T04:53:41.178Z,100640.41
2019-04-26T04:56:35.426Z,100640.45
2019-04-26T04:59:36.910Z,100640.45
2019-04-26T05:02:20.811Z,100637.20
2019-04-26T05:05:24.513Z,100644.75
2019-04-26T05:34:02.482Z,100667.37
2019-04-26T05:37:27.978Z,100663.58
2019-04-26T05:40:13.506Z,100667.75
2019-04-26T05:43:26.856Z,100657.52
2019-04-26T05:46:34.459Z,100664.11
2019-04-26T05:49:50.404Z,100657.63
2019-04-26T05:53:08.276Z,100657.27
2019-04-26T05:56:31.244Z,100666.02
2019-04-26T05:59:17.687Z,100666.72
2019-04-26T06:02:31.120Z,100666.42
2019-04-26T06:05:31.301Z,100663.58
2019-04-26T06:08:53.820Z,100659.75
2019-04-26T06:11:32.776Z,100673.28
2019-04-26T06:14:34.892Z,100684.42
2019-04-26T06:17:36.732Z,100679.88
2019-04-26T06:20:23.933Z,100690.97
2019-04-26T06:23:22.728Z,100691.55
2019-04-26T06:26:08.165Z,100690.63
2019-04-26T06:28:57.100Z,100677.11
2019-04-26T06:31:30.809Z,100667.72
2019-04-26T06:34:11.586Z,100672.34
2019-04-26T06:37:08.499Z,100656.64
2019-04-26T06:40:06.018Z,100649.80
2019-04-26T06:43:15.385Z,100645.39
2019-04-26T06:46:47.530Z,100650.57
2019-04-26T06:49:41.680Z,100650.33
2019-04-26T06:52:15.102Z,100652.64
2019-04-26T06:55:10.010Z,100651.36
2019-04-26T06:58:14.490Z,100652.51
2019-04-26T07:01:11.798Z,100642.28
2019-04-26T07:04:21.295Z,100653.31
2019-04-26T07:07:02.563Z,100669.57
2019-04-26T07:09:38.779Z,100688.45
2019-04-26T07:12:42.649Z,100678.63
2019-04-26T07:16:16.471Z,100688.37
2019-04-26T07:19:16.355Z,100700.00
2019-04-26T07:22:35.133Z,100685.03
2019-04-26T07:25:40.292Z,100687.36
2019-04-26T07:28:30.896Z,100701.83
2019-04-26T07:31:13.490Z,100701.15
2019-04-26T07:34:09.480Z,100708.78
2019-04-26T07:37:15.521Z,100701.72
2019-04-26T07:40:43.093Z,100701.66
2019-04-26T07:43:38.782Z,100708.80
2019-04-26T07:46:48.010Z,100710.28
2019-04-26T07:50:04.038Z,100720.73
2019-04-26T07:52:52.950Z,100728.20
2019-04-26T07:55:50.481Z,100736.28
2019-04-26T07:59:10.642Z,100743.16
2019-04-26T08:02:09.004Z,100739.34
2019-04-26T08:04:43.498Z,100750.02
2019-04-26T08:07:21.034Z,100745.25
2019-04-26T08:10:10.322Z,100739.22
2019-04-26T08:12:42.532Z,100744.02
2019-04-26T08:15:39.091Z,100736.17
2019-04-26T08:18:15.273Z,100742.98
2019-04-26T08:20:50.611Z,100733.15
2019-04-26T08:23:41.946Z,100740.53
2019-04-26T08:26:13.802Z,100739.47
2019-04-26T08:28:45.346Z,100757.95
2019-04-26T08:31:21.503Z,100758.56
2019-04-26T08:33:57.083Z,100754.36
2019-04-26T08:36:31.683Z,100754.75
2019-04-26T08:39:01.875Z,100765.77
2019-04-26T08:41:31.512Z,100742.82
2019-04-26T08:44:24.260Z,100744.67
2019-04-26T08:47:20.980Z,100743.61
2019-04-26T08:50:09.676Z,100738.78
2019-04-26T08:52:39.719Z,100746.41
2019-04-26T08:55:10.579Z,100747.19
2019-04-26T08:57:43.495Z,100748.80
2019-04-26T09:00:35.462Z,100752.13
2019-04-26T09:03:22.886Z,100746.20
2019-04-26T09:06:19.133Z,100744.52
2019-04-26T09:08:51.536Z,100750.28
2019-04-26T09:11:26.384Z,100766.90
2019-04-26T09:13:56.270Z,100775.78
2019-04-26T09:16:26.015Z,100775.44
2019-04-26T09:18:59.523Z,100777.13
2019-04-26T09:21:37.018Z,100780.36
2019-04-26T09:24:25.115Z,100789.85
2019-04-26T09:27:12.787Z,100789.69
2019-04-26T09:30:05.084Z,100791.32
2019-04-26T09:32:42.311Z,100792.31
2019-04-26T09:35:15.239Z,100801.05
2019-04-26T09:37:43.443Z,100809.60
2019-04-26T09:40:21.155Z,100818.98
2019-04-26T09:43:10.596Z,100828.84
2019-04-26T09:46:03.069Z,100822.86
2019-04-26T09:48:40.536Z,100822.77
2019-04-26T09:51:10.894Z,100818.63
2019-04-26T09:53:43.269Z,100816.16
2019-04-26T09:56:11.839Z,100819.41
2019-04-26T09:58:41.089Z,100818.73
2019-04-26T10:01:10.576Z,100827.99
2019-04-26T10:03:39.864Z,100846.84
2019-04-26T10:06:09.439Z,100854.14
2019-04-26T10:08:38.615Z,100845.65
2019-04-26T10:11:10.963Z,100858.83
2019-04-26T10:13:58.645Z,100873.88
2019-04-26T10:16:33.626Z,100866.28
2019-04-26T10:19:16.339Z,100880.89
2019-04-26T10:21:45.660Z,100885.67
2019-04-26T10:24:15.254Z,100885.97
2019-04-26T10:26:44.527Z,100872.77
2019-04-26T10:29:14.743Z,100885.59
2019-04-26T10:31:47.558Z,100884.91
2019-04-26T10:34:16.733Z,100897.06
2019-04-26T10:36:45.937Z,100887.09
2019-04-26T10:39:17.017Z,100905.48
2019-04-26T10:41:46.262Z,100898.05
2019-04-26T10:44:15.836Z,100907.33
2019-04-26T10:46:55.065Z,100906.36
2019-04-26T10:49:42.053Z,100908.36
2019-04-26T10:52:18.830Z,100904.17
2019-04-26T10:54:52.014Z,100908.77
2019-04-26T10:57:29.941Z,100919.66
2019-04-26T11:00:02.679Z,100912.95
2019-04-26T11:02:32.493Z,100928.99
2019-04-26T11:05:01.713Z,100914.61
2019-04-26T11:07:30.945Z,100925.93
2019-04-26T11:10:03.006Z,100927.01
2019-04-26T11:12:34.047Z,100932.48
2019-04-26T11:15:06.190Z,100948.41
2019-04-26T11:17:35.249Z,100942.88
2019-04-26T11:20:06.185Z,100943.45
2019-04-26T11:22:37.579Z,100949.75
2019-04-26T11:25:08.555Z,100948.98
2019-04-26T11:27:40.221Z,100923.16
2019-04-26T11:30:12.079Z,100947.88
2019-04-26T11:32:41.098Z,100941.87
2019-04-26T11:35:11.805Z,100948.67
2019-04-26T11:37:41.657Z,100948.70
2019-04-26T11:40:14.534Z,100934.33
2019-04-26T11:42:45.629Z,100936.19
2019-04-26T11:45:15.892Z,100933.20
2019-04-26T11:47:55.788Z,100937.56
2019-04-26T11:50:17.844Z,100938.75
2019-04-26T11:52:48.056Z,100942.34
2019-04-26T11:55:17.429Z,100932.31
2019-04-26T11:57:47.504Z,100929.64
2019-04-26T12:00:32.365Z,100933.80
2019-04-26T12:03:02.987Z,100939.11
2019-04-26T12:05:39.568Z,100934.77
2019-04-26T12:08:14.922Z,100925.28
2019-04-26T12:10:45.860Z,100934.41
2019-04-26T12:13:15.570Z,100932.64
2019-04-26T12:15:45.430Z,100920.65
2019-04-26T12:18:15.026Z,100923.60
2019-04-26T12:20:44.430Z,100919.78
2019-04-26T12:23:20.557Z,100891.17
2019-04-26T12:25:49.310Z,100906.61
2019-04-26T12:28:19.836Z,100912.89
2019-04-26T12:30:49.439Z,100906.19
2019-04-26T12:33:18.689Z,100918.72
2019-04-26T12:35:48.248Z,100933.33
2019-04-26T12:38:17.827Z,100949.11
2019-04-26T12:40:47.885Z,100942.17
2019-04-26T12:43:20.035Z,100939.74
2019-04-26T12:46:16.200Z,100947.12
2019-04-26T12:48:46.046Z,100939.52
2019-04-26T12:51:16.624Z,100933.69
2019-04-26T12:53:45.751Z,100925.88
2019-04-26T12:56:15.548Z,100925.63
2019-04-26T12:58:45.629Z,100932.41
2019-04-26T13:02:05.084Z,100943.33
2019-04-26T13:05:20.635Z,100958.50
2019-04-26T13:07:52.508Z,100961.98
2019-04-26T13:17:35.798Z,100974.47
2019-04-26T13:29:23.000Z,100982.73
2019-04-26T13:33:04.080Z,100981.31
2019-04-26T13:35:33.280Z,100969.23
2019-04-26T13:38:05.154Z,100969.78
2019-04-26T13:44:05.903Z,100969.73
2019-04-26T13:46:49.443Z,100973.39
2019-04-26T13:49:26.577Z,100971.64
2019-04-26T13:51:55.514Z,100984.78
2019-04-26T13:54:24.366Z,100990.56
2019-04-26T13:56:53.331Z,100999.41
2019-04-26T13:59:22.313Z,100998.88
2019-04-26T14:01:51.246Z,100997.20
2019-04-26T14:04:20.209Z,101003.66
2019-04-26T14:06:49.098Z,100999.47
2019-04-26T14:09:18.015Z,101010.91
2019-04-26T14:11:58.120Z,101004.03
2019-04-26T14:14:35.314Z,101007.56
2019-04-26T14:17:04.303Z,101007.17
2019-04-26T14:19:33.163Z,101012.97
2019-04-26T14:22:03.235Z,101028.06
2019-04-26T14:24:44.180Z,101028.67
2019-04-26T14:27:19.707Z,101025.58
2019-04-26T14:29:50.081Z,101023.19
2019-04-26T14:32:25.217Z,101019.44
2019-04-26T14:34:54.221Z,101022.80
2019-04-26T14:37:23.217Z,101019.74
2019-04-26T14:39:55.366Z,101016.70
2019-04-26T14:42:33.596Z,101024.22
2019-04-26T14:44:54.080Z,101018.43
2019-04-26T14:47:26.417Z,101014.72
2019-04-26T14:49:57.596Z,101022.68
2019-04-26T14:52:27.486Z,101027.42
2019-04-26T14:54:54.614Z,101034.70
2019-04-26T14:57:31.022Z,101022.69
2019-04-26T14:59:58.144Z,101024.66
2019-04-26T15:02:47.155Z,101018.03
2019-04-26T15:05:22.317Z,101029.81
2019-04-26T15:07:53.604Z,101033.21
2019-04-26T15:10:23.524Z,101029.23
2019-04-26T15:12:58.595Z,101019.27
2019-04-26T15:15:30.975Z,101025.91
2019-04-26T15:17:59.492Z,101019.78
2019-04-26T15:20:27.846Z,101013.72
2019-04-26T15:22:56.751Z,101032.92
2019-04-26T15:25:28.675Z,101048.78
2019-04-26T15:30:43.376Z,101057.59
2019-04-26T15:34:08.782Z,101059.16
2019-04-26T15:40:02.718Z,101053.14
2019-04-26T15:43:39.863Z,101072.25
2019-04-26T15:46:17.651Z,101075.72
2019-04-26T15:49:42.837Z,101099.91
2019-04-26T15:52:12.129Z,101102.50
2019-04-26T15:54:42.491Z,101123.34
2019-04-26T15:57:12.577Z,101125.81
2019-04-26T15:59:43.042Z,101135.05
2019-04-26T16:02:13.456Z,101129.50
2019-04-26T16:05:40.567Z,101122.56
2019-04-26T16:08:13.346Z,101117.10
2019-04-26T16:10:43.150Z,101119.62
2019-04-26T16:13:20.693Z,101114.69
2019-04-26T16:15:48.754Z,101107.02
2019-04-26T16:18:17.443Z,101109.10
2019-04-26T16:21:05.741Z,101096.98
2019-04-26T16:23:41.424Z,101110.10
2019-04-26T16:26:12.763Z,101120.26
2019-04-26T16:29:05.312Z,101137.58
2019-04-26T16:31:46.086Z,101132.73
2019-04-26T16:34:28.103Z,101129.81
2019-04-26T16:36:58.719Z,101135.73
2019-04-26T16:39:32.319Z,101145.91
2019-04-26T16:42:04.388Z,101152.34
2019-04-26T16:44:32.991Z,101144.22
2019-04-26T16:47:05.655Z,101153.17
2019-04-26T16:49:41.816Z,101155.34
2019-04-26T16:52:07.890Z,101154.88
2019-04-26T16:54:37.411Z,101149.66
2019-04-26T16:57:11.466Z,101150.63
2019-04-26T16:59:47.455Z,101091.13
2019-04-26T17:04:39.791Z,101156.52
2019-04-26T17:07:09.157Z,101148.05
2019-04-26T17:09:55.793Z,101162.34
2019-04-26T17:12:10.645Z,101162.78
2019-04-26T17:14:47.865Z,101164.16
2019-04-26T17:17:14.025Z,101173.59
2019-04-26T17:19:43.516Z,101171.08
2019-04-26T17:22:42.225Z,101180.16
2019-04-26T17:25:26.860Z,101183.16
2019-04-26T17:27:55.891Z,101173.57
2019-04-26T17:30:26.229Z,101130.87
2019-04-26T17:32:55.468Z,101130.87
2019-04-26T17:35:25.406Z,101175.27
2019-04-26T17:38:02.045Z,101170.20
2019-04-26T17:40:30.160Z,101155.02
2019-04-26T17:43:00.508Z,101158.31
2019-04-26T17:45:30.622Z,101165.01
2019-04-26T17:48:01.338Z,101187.37
2019-04-26T17:50:30.956Z,101192.05
2019-04-26T17:53:00.657Z,101204.01
2019-04-26T17:55:33.348Z,101201.95
2019-04-26T17:58:12.118Z,101200.06
2019-04-26T18:00:46.007Z,101190.13
2019-04-26T18:03:11.642Z,101190.13
2019-04-26T18:05:55.948Z,101184.05
2019-04-26T18:08:31.296Z,101185.55
2019-04-26T18:10:43.191Z,101174.78
2019-04-26T18:13:16.143Z,101166.84
2019-04-26T18:15:48.485Z,101175.11
2019-04-26T18:18:34.258Z,101179.52
2019-04-26T18:21:40.927Z,101187.80
2019-04-26T18:24:13.200Z,101192.89
2019-04-26T18:26:43.300Z,101200.08
2019-04-26T18:29:13.190Z,101206.09
2019-04-26T18:31:43.822Z,101206.09
2019-04-26T18:34:13.109Z,101206.50
2019-04-26T18:36:42.996Z,101193.70
2019-04-26T18:39:12.751Z,101201.45
2019-04-26T18:41:41.914Z,101203.20
2019-04-26T18:44:11.038Z,101220.69
2019-04-26T18:46:49.279Z,101220.69
2019-04-26T18:49:22.595Z,101209.97
2019-04-26T18:51:50.167Z,101195.77
2019-04-26T18:54:24.936Z,101195.77
2019-04-26T18:57:15.544Z,101206.70
2019-04-26T18:59:44.817Z,101209.80
2019-04-26T19:02:19.880Z,101215.66
2019-04-26T19:04:49.689Z,101209.80
2019-04-26T19:07:31.304Z,101213.54
2019-04-26T19:10:00.683Z,101222.03
2019-04-26T19:12:23.240Z,101229.47
2019-04-26T19:15:19.700Z,101223.53
2019-04-26T19:18:07.775Z,101222.09
2019-04-26T19:20:42.098Z,101215.77
2019-04-26T19:23:12.280Z,101218.84
2019-04-26T19:25:41.737Z,101221.81
2019-04-26T19:28:12.177Z,101221.81
2019-04-26T19:30:48.921Z,101192.99
2019-04-26T19:33:17.045Z,101214.44
2019-04-26T19:35:47.409Z,101222.09
2019-04-26T19:38:15.088Z,101236.97
2019-04-26T19:40:47.868Z,101247.82
2019-04-26T19:47:07.236Z,101235.45
2019-04-26T19:49:54.235Z,101239.30
2019-04-26T19:52:33.642Z,101236.68
2019-04-26T19:55:23.838Z,101251.35
2019-04-26T19:57:59.697Z,101253.87
2019-04-26T20:00:29.282Z,101257.70
2019-04-26T20:02:58.492Z,101259.14
2019-04-26T20:05:28.020Z,101251.35
2019-04-26T20:07:58.456Z,101250.39
2019-04-26T20:10:28.163Z,101248.89
2019-04-26T20:12:57.447Z,101235.69
2019-04-26T20:15:28.632Z,101243.44
2019-04-26T20:18:00.296Z,101254.23
2019-04-26T20:20:34.522Z,101243.91
2019-04-26T20:23:05.802Z,101245.94
2019-04-26T20:25:32.076Z,101250.80
2019-04-26T20:28:03.087Z,101247.64
2019-04-26T20:31:05.869Z,101248.70
2019-04-26T20:33:34.932Z,101250.99
2019-04-26T20:36:04.806Z,101255.01
2019-04-26T20:38:42.706Z,101249.55
2019-04-26T20:41:05.411Z,101260.87
2019-04-26T20:43:36.764Z,101270.23
2019-04-26T20:46:14.569Z,101271.27
2019-04-26T20:48:46.604Z,101269.34
2019-04-26T20:51:18.174Z,101276.57
2019-04-26T20:53:47.086Z,101275.02
2019-04-26T20:56:18.705Z,101287.05
2019-04-26T20:58:48.156Z,101283.91
2019-04-26T21:01:17.619Z,101288.41
2019-04-26T21:03:47.463Z,101291.39
2019-04-26T21:06:18.655Z,101295.63
2019-04-26T21:08:47.893Z,101284.89
2019-04-26T21:11:17.657Z,101293.48
2019-04-26T21:13:47.407Z,101291.05
2019-04-26T21:16:16.711Z,101301.13
2019-04-26T21:18:45.976Z,101303.98
2019-04-26T21:21:16.626Z,101308.09
2019-04-26T21:33:21.440Z,101340.86
2019-04-26T21:36:22.947Z,101334.36
2019-04-26T21:39:13.882Z,101333.17
2019-04-26T21:41:53.765Z,101336.03
2019-04-26T21:44:22.736Z,101319.71
2019-04-26T21:46:56.196Z,101314.98
2019-04-26T21:49:24.317Z,101315.70
2019-04-26T21:51:54.310Z,101301.68
2019-04-26T21:54:25.152Z,101303.41
2019-04-26T21:57:13.534Z,101296.03
2019-04-26T21:59:44.170Z,101294.86
2019-04-26T22:02:34.922Z,101287.56
2019-04-26T22:05:03.567Z,101279.50
2019-04-26T22:07:32.846Z,101270.95
2019-04-26T22:10:23.805Z,101267.98
2019-04-26T22:12:53.951Z,101258.98
2019-04-26T22:15:40.090Z,101246.59
2019-04-26T22:18:18.040Z,101239.62
2019-04-26T22:20:52.261Z,101226.00
2019-04-26T22:23:51.693Z,101230.38
2019-04-26T22:26:20.642Z,101248.55
2019-04-26T22:28:49.644Z,101278.18
2019-04-26T22:31:18.561Z,101286.63
2019-04-26T22:33:47.568Z,101295.81
2019-04-26T22:36:16.609Z,101306.47
2019-04-26T22:38:45.677Z,101295.33
2019-04-26T22:41:28.420Z,101293.16
2019-04-26T22:44:03.869Z,101296.66
2019-04-26T22:46:49.524Z,101313.16
2019-04-26T22:49:18.377Z,101326.58
2019-04-26T22:51:47.401Z,101327.30
2019-04-26T22:54:16.406Z,101295.42
2019-04-26T22:56:46.005Z,101270.09
2019-04-26T23:02:58.112Z,101269.75
2019-04-26T23:05:30.746Z,101273.74
2019-04-26T23:07:59.334Z,101277.12
2019-04-26T23:10:34.584Z,101279.42
2019-04-26T23:13:11.004Z,101267.90
2019-04-26T23:16:11.355Z,101273.91
2019-04-26T23:18:50.865Z,101280.53
2019-04-26T23:21:26.802Z,101288.16
2019-04-26T23:23:56.133Z,101290.44
2019-04-26T23:26:25.711Z,101278.48
2019-04-26T23:28:55.887Z,101276.16
2019-04-26T23:31:25.244Z,101261.81
2019-04-26T23:33:54.959Z,101268.56
2019-04-26T23:36:24.507Z,101266.20
2019-04-26T23:38:54.168Z,101263.47
2019-04-26T23:41:23.773Z,101267.72
2019-04-26T23:43:56.830Z,101256.08
2019-04-26T23:46:25.888Z,101252.53
2019-04-26T23:48:55.361Z,101237.92
2019-04-26T23:51:26.255Z,101236.17
2019-04-26T23:53:57.773Z,101230.86
2019-04-26T23:56:27.145Z,101232.70
2019-04-26T23:58:56.712Z,101239.25
